sensor_id;sensor_type;location;lat;lon;timestamp;P1;durP1;ratioP1;P2;durP2;ratioP2
77888;SDS011;67082;41.704;44.768;2023-02-26T00:01:44;18.95;;;8.88;;
77888;SDS011;67082;41.704;44.768;2023-02-26T00:04:12;19.98;;;8.98;;
77888;SDS011;67082;41.704;44.768;2023-02-26T00:06:40;16.65;;;9.00;;
77888;SDS011;67082;41.704;44.768;2023-02-26T00:09:23;15.63;;;8.10;;
77888;SDS011;67082;41.704;44.768;2023-02-26T00:11:52;13.75;;;7.25;;
77888;SDS011;67082;41.704;44.768;2023-02-26T00:14:20;13.95;;;7.32;;
77888;SDS011;67082;41.704;44.768;2023-02-26T00:17:03;15.90;;;7.78;;
77888;SDS011;67082;41.704;44.768;2023-02-26T00:19:36;14.65;;;7.50;;
77888;SDS011;67082;41.704;44.768;2023-02-26T00:22:05;13.23;;;7.45;;
77888;SDS011;67082;41.704;44.768;2023-02-26T00:24:33;19.17;;;7.30;;
77888;SDS011;67082;41.704;44.768;2023-02-26T00:27:02;15.45;;;7.18;;
77888;SDS011;67082;41.704;44.768;2023-02-26T00:29:30;13.88;;;7.13;;
77888;SDS011;67082;41.704;44.768;2023-02-26T00:31:58;12.75;;;6.97;;
77888;SDS011;67082;41.704;44.768;2023-02-26T00:34:27;14.32;;;6.60;;
77888;SDS011;67082;41.704;44.768;2023-02-26T00:37:04;13.85;;;7.30;;
77888;SDS011;67082;41.704;44.768;2023-02-26T00:42:13;15.20;;;7.28;;
77888;SDS011;67082;41.704;44.768;2023-02-26T00:44:41;12.25;;;6.72;;
77888;SDS011;67082;41.704;44.768;2023-02-26T00:47:20;12.50;;;7.07;;
77888;SDS011;67082;41.704;44.768;2023-02-26T00:50:19;10.68;;;6.45;;
77888;SDS011;67082;41.704;44.768;2023-02-26T00:55:35;11.68;;;6.57;;
77888;SDS011;67082;41.704;44.768;2023-02-26T00:58:03;11.75;;;6.15;;
77888;SDS011;67082;41.704;44.768;2023-02-26T01:00:33;12.95;;;6.30;;
77888;SDS011;67082;41.704;44.768;2023-02-26T01:03:03;14.93;;;7.25;;
77888;SDS011;67082;41.704;44.768;2023-02-26T01:05:31;14.40;;;6.88;;
77888;SDS011;67082;41.704;44.768;2023-02-26T01:08:14;16.35;;;6.90;;
77888;SDS011;67082;41.704;44.768;2023-02-26T01:10:58;13.15;;;6.57;;
77888;SDS011;67082;41.704;44.768;2023-02-26T01:13:27;13.85;;;7.07;;
77888;SDS011;67082;41.704;44.768;2023-02-26T01:15:58;12.02;;;6.85;;
77888;SDS011;67082;41.704;44.768;2023-02-26T01:18:37;14.18;;;7.00;;
77888;SDS011;67082;41.704;44.768;2023-02-26T01:21:14;14.07;;;7.03;;
77888;SDS011;67082;41.704;44.768;2023-02-26T01:23:47;13.13;;;6.70;;
77888;SDS011;67082;41.704;44.768;2023-02-26T01:26:22;15.23;;;7.35;;
77888;SDS011;67082;41.704;44.768;2023-02-26T01:28:54;14.20;;;7.05;;
77888;SDS011;67082;41.704;44.768;2023-02-26T01:33:59;15.93;;;6.82;;
77888;SDS011;67082;41.704;44.768;2023-02-26T01:36:38;11.52;;;6.50;;
77888;SDS011;67082;41.704;44.768;2023-02-26T01:39:16;13.07;;;6.30;;
77888;SDS011;67082;41.704;44.768;2023-02-26T01:41:57;11.68;;;6.55;;
77888;SDS011;67082;41.704;44.768;2023-02-26T01:44:41;11.82;;;6.38;;
77888;SDS011;67082;41.704;44.768;2023-02-26T01:47:35;12.27;;;6.03;;
77888;SDS011;67082;41.704;44.768;2023-02-26T01:55:21;15.65;;;6.60;;
77888;SDS011;67082;41.704;44.768;2023-02-26T01:57:52;14.57;;;6.72;;
77888;SDS011;67082;41.704;44.768;2023-02-26T02:00:28;13.15;;;6.50;;
77888;SDS011;67082;41.704;44.768;2023-02-26T02:02:58;14.07;;;6.53;;
77888;SDS011;67082;41.704;44.768;2023-02-26T02:05:32;10.57;;;6.05;;
77888;SDS011;67082;41.704;44.768;2023-02-26T02:08:22;12.18;;;6.28;;
77888;SDS011;67082;41.704;44.768;2023-02-26T02:10:51;14.95;;;7.03;;
77888;SDS011;67082;41.704;44.768;2023-02-26T02:36:39;10.70;;;6.40;;
77888;SDS011;67082;41.704;44.768;2023-02-26T02:39:22;13.10;;;6.95;;
77888;SDS011;67082;41.704;44.768;2023-02-26T02:41:56;12.07;;;6.45;;
77888;SDS011;67082;41.704;44.768;2023-02-26T02:44:28;11.63;;;6.68;;
77888;SDS011;67082;41.704;44.768;2023-02-26T02:47:00;15.23;;;6.50;;
77888;SDS011;67082;41.704;44.768;2023-02-26T02:50:16;12.52;;;6.45;;
77888;SDS011;67082;41.704;44.768;2023-02-26T02:52:42;12.43;;;6.22;;
77888;SDS011;67082;41.704;44.768;2023-02-26T02:55:25;14.15;;;6.93;;
77888;SDS011;67082;41.704;44.768;2023-02-26T02:57:58;14.48;;;6.90;;
77888;SDS011;67082;41.704;44.768;2023-02-26T03:00:29;12.48;;;6.57;;
77888;SDS011;67082;41.704;44.768;2023-02-26T03:03:01;12.85;;;6.18;;
77888;SDS011;67082;41.704;44.768;2023-02-26T03:05:41;13.32;;;6.97;;
77888;SDS011;67082;41.704;44.768;2023-02-26T03:08:10;11.65;;;6.28;;
77888;SDS011;67082;41.704;44.768;2023-02-26T03:10:45;10.82;;;5.65;;
77888;SDS011;67082;41.704;44.768;2023-02-26T03:13:19;14.85;;;6.97;;
77888;SDS011;67082;41.704;44.768;2023-02-26T03:15:59;14.48;;;6.97;;
77888;SDS011;67082;41.704;44.768;2023-02-26T03:21:05;17.05;;;9.32;;
77888;SDS011;67082;41.704;44.768;2023-02-26T03:23:41;17.83;;;9.15;;
77888;SDS011;67082;41.704;44.768;2023-02-26T03:26:23;21.88;;;9.40;;
77888;SDS011;67082;41.704;44.768;2023-02-26T03:29:01;17.85;;;9.13;;
77888;SDS011;67082;41.704;44.768;2023-02-26T03:31:55;18.00;;;8.88;;
77888;SDS011;67082;41.704;44.768;2023-02-26T03:34:45;18.90;;;8.75;;
77888;SDS011;67082;41.704;44.768;2023-02-26T03:37:26;17.05;;;8.65;;
77888;SDS011;67082;41.704;44.768;2023-02-26T03:40:18;16.83;;;8.80;;
77888;SDS011;67082;41.704;44.768;2023-02-26T03:42:54;19.25;;;8.55;;
77888;SDS011;67082;41.704;44.768;2023-02-26T03:45:28;16.35;;;8.15;;
77888;SDS011;67082;41.704;44.768;2023-02-26T03:48:02;17.10;;;9.15;;
77888;SDS011;67082;41.704;44.768;2023-02-26T03:50:42;17.92;;;9.20;;
77888;SDS011;67082;41.704;44.768;2023-02-26T03:53:35;17.05;;;9.10;;
77888;SDS011;67082;41.704;44.768;2023-02-26T03:56:31;17.90;;;8.73;;
77888;SDS011;67082;41.704;44.768;2023-02-26T03:59:37;17.98;;;8.25;;
77888;SDS011;67082;41.704;44.768;2023-02-26T04:05:19;18.85;;;8.63;;
77888;SDS011;67082;41.704;44.768;2023-02-26T04:07:52;20.42;;;9.88;;
77888;SDS011;67082;41.704;44.768;2023-02-26T04:10:39;17.20;;;8.52;;
77888;SDS011;67082;41.704;44.768;2023-02-26T04:13:20;20.02;;;9.70;;
77888;SDS011;67082;41.704;44.768;2023-02-26T04:15:50;20.27;;;9.75;;
77888;SDS011;67082;41.704;44.768;2023-02-26T04:18:19;21.13;;;9.43;;
77888;SDS011;67082;41.704;44.768;2023-02-26T04:20:48;18.08;;;9.23;;
77888;SDS011;67082;41.704;44.768;2023-02-26T04:23:17;20.98;;;9.02;;
77888;SDS011;67082;41.704;44.768;2023-02-26T04:25:46;15.75;;;8.60;;
77888;SDS011;67082;41.704;44.768;2023-02-26T04:28:15;16.05;;;8.68;;
77888;SDS011;67082;41.704;44.768;2023-02-26T04:30:46;18.58;;;9.32;;
77888;SDS011;67082;41.704;44.768;2023-02-26T04:33:15;17.50;;;8.95;;
77888;SDS011;67082;41.704;44.768;2023-02-26T04:35:44;19.40;;;10.20;;
77888;SDS011;67082;41.704;44.768;2023-02-26T04:38:12;19.52;;;10.10;;
77888;SDS011;67082;41.704;44.768;2023-02-26T04:40:40;18.75;;;9.88;;
77888;SDS011;67082;41.704;44.768;2023-02-26T04:43:13;21.33;;;9.57;;
77888;SDS011;67082;41.704;44.768;2023-02-26T04:45:51;20.60;;;9.95;;
77888;SDS011;67082;41.704;44.768;2023-02-26T04:48:19;22.73;;;10.48;;
77888;SDS011;67082;41.704;44.768;2023-02-26T04:50:48;20.98;;;10.05;;
77888;SDS011;67082;41.704;44.768;2023-02-26T04:53:16;22.10;;;10.50;;
77888;SDS011;67082;41.704;44.768;2023-02-26T04:55:46;24.42;;;10.23;;
77888;SDS011;67082;41.704;44.768;2023-02-26T04:58:18;23.25;;;11.60;;
77888;SDS011;67082;41.704;44.768;2023-02-26T05:00:47;22.27;;;11.02;;
77888;SDS011;67082;41.704;44.768;2023-02-26T05:03:16;22.40;;;11.77;;
77888;SDS011;67082;41.704;44.768;2023-02-26T05:05:46;24.30;;;12.20;;
77888;SDS011;67082;41.704;44.768;2023-02-26T05:08:16;22.17;;;12.40;;
77888;SDS011;67082;41.704;44.768;2023-02-26T05:10:44;23.88;;;12.65;;
77888;SDS011;67082;41.704;44.768;2023-02-26T05:13:16;28.15;;;13.57;;
77888;SDS011;67082;41.704;44.768;2023-02-26T05:15:46;26.40;;;13.63;;
77888;SDS011;67082;41.704;44.768;2023-02-26T05:18:14;26.45;;;13.70;;
77888;SDS011;67082;41.704;44.768;2023-02-26T05:20:43;26.15;;;13.77;;
77888;SDS011;67082;41.704;44.768;2023-02-26T05:23:12;22.25;;;11.70;;
77888;SDS011;67082;41.704;44.768;2023-02-26T05:25:40;23.92;;;12.00;;
77888;SDS011;67082;41.704;44.768;2023-02-26T05:28:08;27.25;;;12.45;;
77888;SDS011;67082;41.704;44.768;2023-02-26T05:30:36;22.25;;;11.95;;
77888;SDS011;67082;41.704;44.768;2023-02-26T05:33:05;23.85;;;12.23;;
77888;SDS011;67082;41.704;44.768;2023-02-26T05:35:36;26.77;;;11.88;;
77888;SDS011;67082;41.704;44.768;2023-02-26T05:38:05;21.58;;;12.50;;
77888;SDS011;67082;41.704;44.768;2023-02-26T05:40:33;25.25;;;12.15;;
77888;SDS011;67082;41.704;44.768;2023-02-26T05:43:01;25.67;;;12.95;;
77888;SDS011;67082;41.704;44.768;2023-02-26T05:45:30;26.63;;;12.90;;
77888;SDS011;67082;41.704;44.768;2023-02-26T05:47:58;29.05;;;13.07;;
77888;SDS011;67082;41.704;44.768;2023-02-26T05:50:26;23.52;;;12.60;;
77888;SDS011;67082;41.704;44.768;2023-02-26T05:52:54;21.60;;;12.18;;
77888;SDS011;67082;41.704;44.768;2023-02-26T05:55:23;23.60;;;13.45;;
77888;SDS011;67082;41.704;44.768;2023-02-26T05:57:51;29.55;;;12.90;;
77888;SDS011;67082;41.704;44.768;2023-02-26T06:00:19;22.17;;;11.98;;
77888;SDS011;67082;41.704;44.768;2023-02-26T06:02:47;23.02;;;12.55;;
77888;SDS011;67082;41.704;44.768;2023-02-26T06:05:16;23.65;;;11.95;;
77888;SDS011;67082;41.704;44.768;2023-02-26T06:07:45;24.50;;;12.30;;
77888;SDS011;67082;41.704;44.768;2023-02-26T06:10:14;21.67;;;11.77;;
77888;SDS011;67082;41.704;44.768;2023-02-26T06:12:41;26.15;;;12.63;;
77888;SDS011;67082;41.704;44.768;2023-02-26T06:15:10;22.30;;;12.15;;
77888;SDS011;67082;41.704;44.768;2023-02-26T06:17:39;26.67;;;13.35;;
77888;SDS011;67082;41.704;44.768;2023-02-26T06:20:07;24.25;;;12.73;;
77888;SDS011;67082;41.704;44.768;2023-02-26T06:22:36;24.63;;;13.15;;
77888;SDS011;67082;41.704;44.768;2023-02-26T06:25:05;25.52;;;13.73;;
77888;SDS011;67082;41.704;44.768;2023-02-26T06:27:33;23.58;;;13.40;;
77888;SDS011;67082;41.704;44.768;2023-02-26T06:30:02;25.40;;;13.10;;
77888;SDS011;67082;41.704;44.768;2023-02-26T06:32:31;28.90;;;13.98;;
77888;SDS011;67082;41.704;44.768;2023-02-26T06:35:00;28.90;;;14.93;;
77888;SDS011;67082;41.704;44.768;2023-02-26T06:37:29;29.80;;;14.65;;
77888;SDS011;67082;41.704;44.768;2023-02-26T06:39:57;29.88;;;14.32;;
77888;SDS011;67082;41.704;44.768;2023-02-26T06:42:25;27.80;;;14.27;;
77888;SDS011;67082;41.704;44.768;2023-02-26T06:44:54;33.22;;;15.50;;
77888;SDS011;67082;41.704;44.768;2023-02-26T06:47:23;33.13;;;14.80;;
77888;SDS011;67082;41.704;44.768;2023-02-26T06:49:51;33.47;;;15.52;;
77888;SDS011;67082;41.704;44.768;2023-02-26T06:52:19;29.15;;;14.77;;
77888;SDS011;67082;41.704;44.768;2023-02-26T06:54:48;25.85;;;14.63;;
77888;SDS011;67082;41.704;44.768;2023-02-26T06:57:16;30.05;;;15.18;;
77888;SDS011;67082;41.704;44.768;2023-02-26T06:59:44;31.63;;;15.20;;
77888;SDS011;67082;41.704;44.768;2023-02-26T07:02:16;31.33;;;14.52;;
77888;SDS011;67082;41.704;44.768;2023-02-26T07:04:46;27.92;;;13.43;;
77888;SDS011;67082;41.704;44.768;2023-02-26T07:07:14;24.42;;;13.68;;
77888;SDS011;67082;41.704;44.768;2023-02-26T07:09:42;31.15;;;14.10;;
77888;SDS011;67082;41.704;44.768;2023-02-26T07:12:12;30.13;;;14.18;;
77888;SDS011;67082;41.704;44.768;2023-02-26T07:14:40;28.35;;;14.55;;
77888;SDS011;67082;41.704;44.768;2023-02-26T07:17:12;31.90;;;15.77;;
77888;SDS011;67082;41.704;44.768;2023-02-26T07:19:47;29.35;;;14.95;;
77888;SDS011;67082;41.704;44.768;2023-02-26T07:22:19;29.55;;;14.60;;
77888;SDS011;67082;41.704;44.768;2023-02-26T07:24:48;30.92;;;14.18;;
77888;SDS011;67082;41.704;44.768;2023-02-26T07:27:17;26.67;;;13.50;;
77888;SDS011;67082;41.704;44.768;2023-02-26T07:29:45;26.48;;;14.55;;
77888;SDS011;67082;41.704;44.768;2023-02-26T07:32:13;28.70;;;14.50;;
77888;SDS011;67082;41.704;44.768;2023-02-26T07:34:42;29.08;;;14.38;;
77888;SDS011;67082;41.704;44.768;2023-02-26T07:37:10;30.02;;;14.52;;
77888;SDS011;67082;41.704;44.768;2023-02-26T07:39:39;26.65;;;13.43;;
77888;SDS011;67082;41.704;44.768;2023-02-26T07:42:07;23.80;;;13.27;;
77888;SDS011;67082;41.704;44.768;2023-02-26T07:44:37;30.88;;;13.82;;
77888;SDS011;67082;41.704;44.768;2023-02-26T07:47:05;25.85;;;13.20;;
77888;SDS011;67082;41.704;44.768;2023-02-26T07:49:33;25.00;;;13.30;;
77888;SDS011;67082;41.704;44.768;2023-02-26T07:52:02;27.10;;;13.90;;
77888;SDS011;67082;41.704;44.768;2023-02-26T07:54:30;26.83;;;12.32;;
77888;SDS011;67082;41.704;44.768;2023-02-26T07:56:58;25.25;;;12.30;;
77888;SDS011;67082;41.704;44.768;2023-02-26T07:59:26;23.90;;;12.20;;
77888;SDS011;67082;41.704;44.768;2023-02-26T08:01:54;22.63;;;10.85;;
77888;SDS011;67082;41.704;44.768;2023-02-26T08:04:23;20.40;;;9.77;;
77888;SDS011;67082;41.704;44.768;2023-02-26T08:06:51;18.38;;;9.93;;
77888;SDS011;67082;41.704;44.768;2023-02-26T08:09:25;17.58;;;9.38;;
77888;SDS011;67082;41.704;44.768;2023-02-26T08:11:53;22.25;;;10.02;;
77888;SDS011;67082;41.704;44.768;2023-02-26T08:14:22;17.73;;;10.05;;
77888;SDS011;67082;41.704;44.768;2023-02-26T08:16:50;26.13;;;10.45;;
77888;SDS011;67082;41.704;44.768;2023-02-26T08:19:20;20.98;;;10.23;;
77888;SDS011;67082;41.704;44.768;2023-02-26T08:21:48;18.83;;;8.98;;
77888;SDS011;67082;41.704;44.768;2023-02-26T08:24:17;15.68;;;7.22;;
77888;SDS011;67082;41.704;44.768;2023-02-26T08:26:45;22.08;;;8.60;;
77888;SDS011;67082;41.704;44.768;2023-02-26T08:29:13;17.52;;;9.02;;
77888;SDS011;67082;41.704;44.768;2023-02-26T08:31:41;19.17;;;7.63;;
77888;SDS011;67082;41.704;44.768;2023-02-26T08:34:10;14.57;;;6.28;;
77888;SDS011;67082;41.704;44.768;2023-02-26T08:36:38;12.43;;;6.45;;
77888;SDS011;67082;41.704;44.768;2023-02-26T08:39:06;15.63;;;6.80;;
77888;SDS011;67082;41.704;44.768;2023-02-26T08:41:34;15.48;;;6.95;;
77888;SDS011;67082;41.704;44.768;2023-02-26T08:44:03;17.23;;;6.15;;
77888;SDS011;67082;41.704;44.768;2023-02-26T08:46:31;14.07;;;6.22;;
77888;SDS011;67082;41.704;44.768;2023-02-26T08:48:59;13.55;;;6.20;;
77888;SDS011;67082;41.704;44.768;2023-02-26T08:51:28;12.07;;;6.00;;
77888;SDS011;67082;41.704;44.768;2023-02-26T08:53:56;11.55;;;5.57;;
77888;SDS011;67082;41.704;44.768;2023-02-26T08:56:24;12.30;;;6.32;;
77888;SDS011;67082;41.704;44.768;2023-02-26T08:58:53;13.55;;;5.53;;
77888;SDS011;67082;41.704;44.768;2023-02-26T09:01:21;11.32;;;5.55;;
77888;SDS011;67082;41.704;44.768;2023-02-26T09:03:50;15.98;;;6.07;;
77888;SDS011;67082;41.704;44.768;2023-02-26T09:06:18;12.98;;;5.57;;
77888;SDS011;67082;41.704;44.768;2023-02-26T09:08:46;14.00;;;5.63;;
77888;SDS011;67082;41.704;44.768;2023-02-26T09:11:15;14.48;;;6.10;;
77888;SDS011;67082;41.704;44.768;2023-02-26T09:13:44;13.85;;;6.85;;
77888;SDS011;67082;41.704;44.768;2023-02-26T09:16:11;10.25;;;5.93;;
77888;SDS011;67082;41.704;44.768;2023-02-26T09:18:40;13.25;;;6.82;;
77888;SDS011;67082;41.704;44.768;2023-02-26T09:21:09;16.75;;;7.28;;
77888;SDS011;67082;41.704;44.768;2023-02-26T09:23:37;19.08;;;7.10;;
77888;SDS011;67082;41.704;44.768;2023-02-26T09:26:05;15.38;;;7.25;;
77888;SDS011;67082;41.704;44.768;2023-02-26T09:28:35;15.77;;;6.95;;
77888;SDS011;67082;41.704;44.768;2023-02-26T09:31:03;12.20;;;6.70;;
77888;SDS011;67082;41.704;44.768;2023-02-26T09:33:34;14.60;;;6.80;;
77888;SDS011;67082;41.704;44.768;2023-02-26T09:36:03;12.57;;;6.43;;
77888;SDS011;67082;41.704;44.768;2023-02-26T09:38:31;17.83;;;7.18;;
77888;SDS011;67082;41.704;44.768;2023-02-26T09:41:06;11.25;;;7.10;;
77888;SDS011;67082;41.704;44.768;2023-02-26T09:52:16;17.33;;;7.57;;
77888;SDS011;67082;41.704;44.768;2023-02-26T09:54:57;16.30;;;7.43;;
77888;SDS011;67082;41.704;44.768;2023-02-26T09:57:32;14.38;;;7.32;;
77888;SDS011;67082;41.704;44.768;2023-02-26T10:00:06;16.38;;;7.20;;
77888;SDS011;67082;41.704;44.768;2023-02-26T10:08:07;16.33;;;7.75;;
77888;SDS011;67082;41.704;44.768;2023-02-26T10:13:42;13.82;;;7.68;;
77888;SDS011;67082;41.704;44.768;2023-02-26T10:16:26;15.50;;;7.20;;
77888;SDS011;67082;41.704;44.768;2023-02-26T10:19:11;16.38;;;7.55;;
77888;SDS011;67082;41.704;44.768;2023-02-26T10:21:48;13.55;;;7.28;;
77888;SDS011;67082;41.704;44.768;2023-02-26T10:24:37;17.67;;;6.97;;
77888;SDS011;67082;41.704;44.768;2023-02-26T10:27:14;14.27;;;7.80;;
77888;SDS011;67082;41.704;44.768;2023-02-26T10:34:58;22.45;;;8.95;;
77888;SDS011;67082;41.704;44.768;2023-02-26T10:37:50;13.07;;;7.72;;
77888;SDS011;67082;41.704;44.768;2023-02-26T10:40:32;17.50;;;8.40;;
77888;SDS011;67082;41.704;44.768;2023-02-26T10:43:21;16.37;;;7.17;;
77888;SDS011;67082;41.704;44.768;2023-02-26T10:48:50;15.13;;;7.72;;
77888;SDS011;67082;41.704;44.768;2023-02-26T10:51:34;18.17;;;7.35;;
77888;SDS011;67082;41.704;44.768;2023-02-26T10:54:14;17.77;;;7.90;;
77888;SDS011;67082;41.704;44.768;2023-02-26T10:56:48;12.82;;;7.57;;
77888;SDS011;67082;41.704;44.768;2023-02-26T10:59:16;16.48;;;8.15;;
77888;SDS011;67082;41.704;44.768;2023-02-26T11:01:44;16.88;;;7.38;;
77888;SDS011;67082;41.704;44.768;2023-02-26T11:04:16;10.82;;;6.95;;
77888;SDS011;67082;41.704;44.768;2023-02-26T11:06:54;14.80;;;7.35;;
77888;SDS011;67082;41.704;44.768;2023-02-26T11:14:41;18.33;;;8.13;;
77888;SDS011;67082;41.704;44.768;2023-02-26T11:17:18;11.85;;;6.85;;
77888;SDS011;67082;41.704;44.768;2023-02-26T11:20:13;15.00;;;7.00;;
77888;SDS011;67082;41.704;44.768;2023-02-26T11:22:53;15.07;;;7.22;;
77888;SDS011;67082;41.704;44.768;2023-02-26T11:25:26;14.57;;;7.88;;
77888;SDS011;67082;41.704;44.768;2023-02-26T11:27:59;14.90;;;7.75;;
77888;SDS011;67082;41.704;44.768;2023-02-26T11:30:32;13.23;;;6.95;;
77888;SDS011;67082;41.704;44.768;2023-02-26T11:33:13;18.00;;;8.15;;
77888;SDS011;67082;41.704;44.768;2023-02-26T11:35:45;13.90;;;7.70;;
77888;SDS011;67082;41.704;44.768;2023-02-26T11:38:15;15.13;;;7.70;;
77888;SDS011;67082;41.704;44.768;2023-02-26T11:40:48;15.35;;;7.35;;
77888;SDS011;67082;41.704;44.768;2023-02-26T11:43:21;15.93;;;7.22;;
77888;SDS011;67082;41.704;44.768;2023-02-26T11:45:58;13.27;;;8.05;;
77888;SDS011;67082;41.704;44.768;2023-02-26T11:48:32;17.05;;;7.72;;
77888;SDS011;67082;41.704;44.768;2023-02-26T11:51:10;16.20;;;7.53;;
77888;SDS011;67082;41.704;44.768;2023-02-26T11:53:47;14.13;;;8.40;;
77888;SDS011;67082;41.704;44.768;2023-02-26T11:56:25;15.93;;;7.90;;
77888;SDS011;67082;41.704;44.768;2023-02-26T11:59:16;13.98;;;7.90;;
77888;SDS011;67082;41.704;44.768;2023-02-26T12:04:23;14.05;;;7.80;;
77888;SDS011;67082;41.704;44.768;2023-02-26T12:06:55;14.55;;;7.68;;
77888;SDS011;67082;41.704;44.768;2023-02-26T12:09:24;15.10;;;7.68;;
77888;SDS011;67082;41.704;44.768;2023-02-26T12:17:35;16.95;;;7.53;;
77888;SDS011;67082;41.704;44.768;2023-02-26T12:25:53;15.00;;;7.68;;
77888;SDS011;67082;41.704;44.768;2023-02-26T12:52:00;13.60;;;7.68;;
77888;SDS011;67082;41.704;44.768;2023-02-26T13:03:27;13.45;;;8.15;;
77888;SDS011;67082;41.704;44.768;2023-02-26T13:09:21;12.95;;;7.20;;
77888;SDS011;67082;41.704;44.768;2023-02-26T13:14:40;13.15;;;7.28;;
77888;SDS011;67082;41.704;44.768;2023-02-26T13:17:27;19.30;;;7.63;;
77888;SDS011;67082;41.704;44.768;2023-02-26T13:20:04;16.38;;;7.45;;
77888;SDS011;67082;41.704;44.768;2023-02-26T13:23:01;14.68;;;8.15;;
77888;SDS011;67082;41.704;44.768;2023-02-26T13:26:01;15.60;;;7.78;;
77888;SDS011;67082;41.704;44.768;2023-02-26T13:34:40;20.52;;;7.70;;
77888;SDS011;67082;41.704;44.768;2023-02-26T13:37:33;17.83;;;7.50;;
77888;SDS011;67082;41.704;44.768;2023-02-26T13:48:57;13.25;;;6.40;;
77888;SDS011;67082;41.704;44.768;2023-02-26T14:04:53;11.10;;;6.32;;
77888;SDS011;67082;41.704;44.768;2023-02-26T14:07:46;13.80;;;7.00;;
77888;SDS011;67082;41.704;44.768;2023-02-26T14:10:44;13.07;;;6.32;;
77888;SDS011;67082;41.704;44.768;2023-02-26T14:19:13;10.35;;;6.35;;
77888;SDS011;67082;41.704;44.768;2023-02-26T14:24:52;10.55;;;5.97;;
77888;SDS011;67082;41.704;44.768;2023-02-26T14:32:45;13.82;;;6.85;;
77888;SDS011;67082;41.704;44.768;2023-02-26T14:35:30;11.40;;;6.07;;
77888;SDS011;67082;41.704;44.768;2023-02-26T14:38:03;13.57;;;6.93;;
77888;SDS011;67082;41.704;44.768;2023-02-26T14:40:41;16.33;;;8.82;;
77888;SDS011;67082;41.704;44.768;2023-02-26T14:43:22;23.50;;;9.95;;
77888;SDS011;67082;41.704;44.768;2023-02-26T14:46:01;16.48;;;8.60;;
77888;SDS011;67082;41.704;44.768;2023-02-26T14:48:33;15.88;;;8.02;;
77888;SDS011;67082;41.704;44.768;2023-02-26T14:57:22;29.52;;;16.05;;
77888;SDS011;67082;41.704;44.768;2023-02-26T15:00:02;16.52;;;9.05;;
77888;SDS011;67082;41.704;44.768;2023-02-26T15:05:23;14.82;;;7.75;;
77888;SDS011;67082;41.704;44.768;2023-02-26T15:08:08;17.10;;;9.25;;
77888;SDS011;67082;41.704;44.768;2023-02-26T15:16:36;15.48;;;8.30;;
77888;SDS011;67082;41.704;44.768;2023-02-26T15:22:22;17.73;;;9.07;;
77888;SDS011;67082;41.704;44.768;2023-02-26T15:24:52;15.15;;;9.00;;
77888;SDS011;67082;41.704;44.768;2023-02-26T15:27:20;18.67;;;9.23;;
77888;SDS011;67082;41.704;44.768;2023-02-26T15:29:49;17.38;;;9.20;;
77888;SDS011;67082;41.704;44.768;2023-02-26T15:32:22;20.55;;;11.57;;
77888;SDS011;67082;41.704;44.768;2023-02-26T15:35:06;17.92;;;10.85;;
77888;SDS011;67082;41.704;44.768;2023-02-26T15:37:46;20.50;;;9.65;;
77888;SDS011;67082;41.704;44.768;2023-02-26T15:40:20;20.70;;;8.80;;
77888;SDS011;67082;41.704;44.768;2023-02-26T15:42:49;18.17;;;8.38;;
77888;SDS011;67082;41.704;44.768;2023-02-26T15:45:30;23.10;;;12.20;;
77888;SDS011;67082;41.704;44.768;2023-02-26T15:48:03;21.20;;;11.10;;
77888;SDS011;67082;41.704;44.768;2023-02-26T15:50:36;24.38;;;11.40;;
77888;SDS011;67082;41.704;44.768;2023-02-26T15:53:26;26.35;;;10.98;;
77888;SDS011;67082;41.704;44.768;2023-02-26T15:56:10;22.70;;;10.70;;
77888;SDS011;67082;41.704;44.768;2023-02-26T15:58:51;22.92;;;10.95;;
77888;SDS011;67082;41.704;44.768;2023-02-26T16:01:28;21.15;;;10.73;;
77888;SDS011;67082;41.704;44.768;2023-02-26T16:04:02;26.67;;;11.73;;
77888;SDS011;67082;41.704;44.768;2023-02-26T16:06:34;31.88;;;14.02;;
77888;SDS011;67082;41.704;44.768;2023-02-26T16:09:06;29.23;;;13.07;;
77888;SDS011;67082;41.704;44.768;2023-02-26T16:11:41;20.95;;;10.90;;
77888;SDS011;67082;41.704;44.768;2023-02-26T16:14:28;23.35;;;11.00;;
77888;SDS011;67082;41.704;44.768;2023-02-26T16:16:59;24.67;;;10.23;;
77888;SDS011;67082;41.704;44.768;2023-02-26T16:19:32;18.23;;;9.30;;
77888;SDS011;67082;41.704;44.768;2023-02-26T16:22:20;19.15;;;10.18;;
77888;SDS011;67082;41.704;44.768;2023-02-26T16:28:13;23.73;;;10.65;;
77888;SDS011;67082;41.704;44.768;2023-02-26T16:30:55;20.02;;;10.02;;
77888;SDS011;67082;41.704;44.768;2023-02-26T16:33:26;21.88;;;9.60;;
77888;SDS011;67082;41.704;44.768;2023-02-26T16:36:11;17.17;;;9.43;;
77888;SDS011;67082;41.704;44.768;2023-02-26T16:38:44;20.73;;;9.98;;
77888;SDS011;67082;41.704;44.768;2023-02-26T16:41:15;18.73;;;9.05;;
77888;SDS011;67082;41.704;44.768;2023-02-26T16:43:50;16.92;;;9.40;;
77888;SDS011;67082;41.704;44.768;2023-02-26T16:49:19;18.27;;;9.05;;
77888;SDS011;67082;41.704;44.768;2023-02-26T16:51:53;20.60;;;10.25;;
77888;SDS011;67082;41.704;44.768;2023-02-26T16:54:23;17.85;;;9.80;;
77888;SDS011;67082;41.704;44.768;2023-02-26T16:56:58;16.63;;;8.90;;
77888;SDS011;67082;41.704;44.768;2023-02-26T16:59:31;20.38;;;9.82;;
77888;SDS011;67082;41.704;44.768;2023-02-26T17:02:23;18.13;;;8.95;;
77888;SDS011;67082;41.704;44.768;2023-02-26T17:05:00;17.00;;;9.45;;
77888;SDS011;67082;41.704;44.768;2023-02-26T17:07:44;18.00;;;8.25;;
77888;SDS011;67082;41.704;44.768;2023-02-26T17:10:23;14.30;;;7.72;;
77888;SDS011;67082;41.704;44.768;2023-02-26T17:13:03;15.25;;;8.48;;
77888;SDS011;67082;41.704;44.768;2023-02-26T17:15:40;16.83;;;8.20;;
77888;SDS011;67082;41.704;44.768;2023-02-26T17:18:09;13.88;;;7.18;;
77888;SDS011;67082;41.704;44.768;2023-02-26T17:20:38;12.43;;;7.28;;
77888;SDS011;67082;41.704;44.768;2023-02-26T17:23:07;13.60;;;7.75;;
77888;SDS011;67082;41.704;44.768;2023-02-26T17:25:43;12.52;;;7.20;;
77888;SDS011;67082;41.704;44.768;2023-02-26T17:28:16;13.23;;;7.30;;
77888;SDS011;67082;41.704;44.768;2023-02-26T17:30:50;12.10;;;6.97;;
77888;SDS011;67082;41.704;44.768;2023-02-26T17:33:19;11.57;;;6.82;;
77888;SDS011;67082;41.704;44.768;2023-02-26T17:35:48;14.52;;;7.57;;
77888;SDS011;67082;41.704;44.768;2023-02-26T17:38:17;14.65;;;8.18;;
77888;SDS011;67082;41.704;44.768;2023-02-26T17:40:45;14.23;;;8.32;;
77888;SDS011;67082;41.704;44.768;2023-02-26T17:43:21;12.25;;;7.13;;
77888;SDS011;67082;41.704;44.768;2023-02-26T17:45:50;13.70;;;7.55;;
77888;SDS011;67082;41.704;44.768;2023-02-26T17:48:18;12.88;;;7.45;;
77888;SDS011;67082;41.704;44.768;2023-02-26T17:50:49;15.57;;;7.47;;
77888;SDS011;67082;41.704;44.768;2023-02-26T17:53:20;13.45;;;7.50;;
77888;SDS011;67082;41.704;44.768;2023-02-26T17:55:49;13.30;;;8.27;;
77888;SDS011;67082;41.704;44.768;2023-02-26T18:00:56;14.63;;;8.38;;
77888;SDS011;67082;41.704;44.768;2023-02-26T18:03:24;15.25;;;8.45;;
77888;SDS011;67082;41.704;44.768;2023-02-26T18:05:53;13.98;;;7.75;;
77888;SDS011;67082;41.704;44.768;2023-02-26T18:08:25;13.20;;;8.02;;
77888;SDS011;67082;41.704;44.768;2023-02-26T18:10:57;12.15;;;8.07;;